sensor_id;sensor_type;location;lat;lon;timestamp;temperature;humidity
4245;DHT22;2136;48.502;9.194;2022-12-29T00:02:22;9.90;65.30
4245;DHT22;2136;48.502;9.194;2022-12-29T00:04:49;10.00;63.80
4245;DHT22;2136;48.502;9.194;2022-12-29T00:07:16;9.90;64.80
4245;DHT22;2136;48.502;9.194;2022-12-29T00:09:43;10.00;63.60
4245;DHT22;2136;48.502;9.194;2022-12-29T00:12:10;10.00;63.50
4245;DHT22;2136;48.502;9.194;2022-12-29T00:14:38;10.00;63.50
4245;DHT22;2136;48.502;9.194;2022-12-29T00:17:22;10.00;63.80
4245;DHT22;2136;48.502;9.194;2022-12-29T00:19:49;10.10;64.00
4245;DHT22;2136;48.502;9.194;2022-12-29T00:22:33;10.10;64.20
4245;DHT22;2136;48.502;9.194;2022-12-29T00:25:18;10.10;64.10
4245;DHT22;2136;48.502;9.194;2022-12-29T00:28:02;10.10;64.10
4245;DHT22;2136;48.502;9.194;2022-12-29T00:30:48;10.10;64.10
4245;DHT22;2136;48.502;9.194;2022-12-29T00:33:33;10.10;64.10
4245;DHT22;2136;48.502;9.194;2022-12-29T00:36:20;10.10;63.80
4245;DHT22;2136;48.502;9.194;2022-12-29T00:38:50;10.10;63.80
4245;DHT22;2136;48.502;9.194;2022-12-29T00:41:35;10.00;63.50
4245;DHT22;2136;48.502;9.194;2022-12-29T00:44:20;10.10;63.40
4245;DHT22;2136;48.502;9.194;2022-12-29T00:46:48;10.20;63.30
4245;DHT22;2136;48.502;9.194;2022-12-29T00:49:16;10.10;63.10
4245;DHT22;2136;48.502;9.194;2022-12-29T00:51:58;10.20;62.90
4245;DHT22;2136;48.502;9.194;2022-12-29T00:54:25;10.20;62.20
4245;DHT22;2136;48.502;9.194;2022-12-29T00:56:52;10.30;62.20
4245;DHT22;2136;48.502;9.194;2022-12-29T00:59:20;10.30;62.10
4245;DHT22;2136;48.502;9.194;2022-12-29T01:01:48;10.40;61.80
4245;DHT22;2136;48.502;9.194;2022-12-29T01:04:15;10.50;61.70
4245;DHT22;2136;48.502;9.194;2022-12-29T01:06:42;10.50;61.50
4245;DHT22;2136;48.502;9.194;2022-12-29T01:09:09;10.50;61.20
4245;DHT22;2136;48.502;9.194;2022-12-29T01:11:53;10.60;61.30
4245;DHT22;2136;48.502;9.194;2022-12-29T01:14:21;10.60;61.00
4245;DHT22;2136;48.502;9.194;2022-12-29T01:16:49;10.60;60.90
4245;DHT22;2136;48.502;9.194;2022-12-29T01:19:17;10.70;60.80
4245;DHT22;2136;48.502;9.194;2022-12-29T01:21:44;10.70;60.50
4245;DHT22;2136;48.502;9.194;2022-12-29T01:24:11;10.80;60.40
4245;DHT22;2136;48.502;9.194;2022-12-29T01:26:38;10.80;60.20
4245;DHT22;2136;48.502;9.194;2022-12-29T01:29:05;10.80;60.20
4245;DHT22;2136;48.502;9.194;2022-12-29T01:31:32;10.90;60.10
4245;DHT22;2136;48.502;9.194;2022-12-29T01:34:00;10.90;60.10
4245;DHT22;2136;48.502;9.194;2022-12-29T01:36:27;10.90;60.30
4245;DHT22;2136;48.502;9.194;2022-12-29T01:38:54;10.90;60.00
4245;DHT22;2136;48.502;9.194;2022-12-29T01:41:21;10.90;59.90
4245;DHT22;2136;48.502;9.194;2022-12-29T01:43:50;10.90;59.80
4245;DHT22;2136;48.502;9.194;2022-12-29T01:46:23;10.90;59.90
4245;DHT22;2136;48.502;9.194;2022-12-29T01:48:53;10.90;59.90
4245;DHT22;2136;48.502;9.194;2022-12-29T01:51:25;10.90;59.90
4245;DHT22;2136;48.502;9.194;2022-12-29T01:53:54;10.90;59.80
4245;DHT22;2136;48.502;9.194;2022-12-29T01:56:22;10.90;59.90
4245;DHT22;2136;48.502;9.194;2022-12-29T01:58:56;10.90;60.00
4245;DHT22;2136;48.502;9.194;2022-12-29T02:01:27;10.90;60.20
4245;DHT22;2136;48.502;9.194;2022-12-29T02:03:54;11.00;60.20
4245;DHT22;2136;48.502;9.194;2022-12-29T02:06:23;11.00;60.40
4245;DHT22;2136;48.502;9.194;2022-12-29T02:08:53;11.00;60.50
4245;DHT22;2136;48.502;9.194;2022-12-29T02:11:23;11.00;60.70
4245;DHT22;2136;48.502;9.194;2022-12-29T02:13:51;11.00;60.80
4245;DHT22;2136;48.502;9.194;2022-12-29T02:16:31;11.00;60.90
4245;DHT22;2136;48.502;9.194;2022-12-29T02:19:33;11.00;60.60
4245;DHT22;2136;48.502;9.194;2022-12-29T02:22:16;11.10;60.40
4245;DHT22;2136;48.502;9.194;2022-12-29T02:25:04;11.10;60.00
4245;DHT22;2136;48.502;9.194;2022-12-29T02:27:56;11.20;59.80
4245;DHT22;2136;48.502;9.194;2022-12-29T02:30:45;11.20;59.30
4245;DHT22;2136;48.502;9.194;2022-12-29T02:33:23;11.30;59.00
4245;DHT22;2136;48.502;9.194;2022-12-29T02:35:58;11.40;58.80
4245;DHT22;2136;48.502;9.194;2022-12-29T02:38:36;11.40;58.60
4245;DHT22;2136;48.502;9.194;2022-12-29T02:41:08;11.50;58.30
4245;DHT22;2136;48.502;9.194;2022-12-29T02:43:41;11.60;58.20
4245;DHT22;2136;48.502;9.194;2022-12-29T02:46:19;11.60;57.90
4245;DHT22;2136;48.502;9.194;2022-12-29T02:48:50;11.60;57.70
4245;DHT22;2136;48.502;9.194;2022-12-29T02:51:23;11.70;57.70
4245;DHT22;2136;48.502;9.194;2022-12-29T02:53:52;11.70;57.30
4245;DHT22;2136;48.502;9.194;2022-12-29T02:56:37;11.80;57.20
4245;DHT22;2136;48.502;9.194;2022-12-29T02:59:04;11.80;56.90
4245;DHT22;2136;48.502;9.194;2022-12-29T03:01:42;11.80;56.70
4245;DHT22;2136;48.502;9.194;2022-12-29T03:04:38;11.80;56.40
4245;DHT22;2136;48.502;9.194;2022-12-29T03:07:14;11.80;56.00
4245;DHT22;2136;48.502;9.194;2022-12-29T03:09:50;11.90;56.00
4245;DHT22;2136;48.502;9.194;2022-12-29T03:12:26;11.90;55.90
4245;DHT22;2136;48.502;9.194;2022-12-29T03:15:18;12.00;55.80
4245;DHT22;2136;48.502;9.194;2022-12-29T03:18:09;12.00;55.60
4245;DHT22;2136;48.502;9.194;2022-12-29T03:20:38;12.00;55.60
4245;DHT22;2136;48.502;9.194;2022-12-29T03:23:06;12.00;55.50
4245;DHT22;2136;48.502;9.194;2022-12-29T03:25:36;12.00;55.50
4245;DHT22;2136;48.502;9.194;2022-12-29T03:28:07;12.00;55.40
4245;DHT22;2136;48.502;9.194;2022-12-29T03:30:35;12.00;55.40
4245;DHT22;2136;48.502;9.194;2022-12-29T03:33:08;12.00;55.20
4245;DHT22;2136;48.502;9.194;2022-12-29T03:35:38;12.00;55.30
4245;DHT22;2136;48.502;9.194;2022-12-29T03:38:08;12.00;55.40
4245;DHT22;2136;48.502;9.194;2022-12-29T03:40:38;12.10;55.30
4245;DHT22;2136;48.502;9.194;2022-12-29T03:43:07;12.00;55.10
4245;DHT22;2136;48.502;9.194;2022-12-29T03:45:34;11.90;55.10
4245;DHT22;2136;48.502;9.194;2022-12-29T03:48:01;11.90;55.10
4245;DHT22;2136;48.502;9.194;2022-12-29T03:50:29;11.90;55.20
4245;DHT22;2136;48.502;9.194;2022-12-29T03:52:56;11.90;55.60
4245;DHT22;2136;48.502;9.194;2022-12-29T03:55:23;11.80;55.50
4245;DHT22;2136;48.502;9.194;2022-12-29T03:57:50;11.80;55.40
4245;DHT22;2136;48.502;9.194;2022-12-29T04:00:17;11.80;55.50
4245;DHT22;2136;48.502;9.194;2022-12-29T04:02:43;11.70;55.50
4245;DHT22;2136;48.502;9.194;2022-12-29T04:05:10;11.70;55.60
4245;DHT22;2136;48.502;9.194;2022-12-29T04:07:38;11.70;55.70
4245;DHT22;2136;48.502;9.194;2022-12-29T04:10:06;11.60;55.90
4245;DHT22;2136;48.502;9.194;2022-12-29T04:12:33;11.60;56.10
4245;DHT22;2136;48.502;9.194;2022-12-29T04:14:59;11.60;56.20
4245;DHT22;2136;48.502;9.194;2022-12-29T04:17:26;11.60;56.40
4245;DHT22;2136;48.502;9.194;2022-12-29T04:19:53;11.70;56.40
4245;DHT22;2136;48.502;9.194;2022-12-29T04:22:42;11.70;56.40
4245;DHT22;2136;48.502;9.194;2022-12-29T04:25:09;11.80;56.30
4245;DHT22;2136;48.502;9.194;2022-12-29T04:27:36;11.80;56.30
4245;DHT22;2136;48.502;9.194;2022-12-29T04:30:03;11.80;56.30
4245;DHT22;2136;48.502;9.194;2022-12-29T04:32:30;11.90;56.10
4245;DHT22;2136;48.502;9.194;2022-12-29T04:34:57;11.90;56.20
4245;DHT22;2136;48.502;9.194;2022-12-29T04:37:23;12.00;56.40
4245;DHT22;2136;48.502;9.194;2022-12-29T04:39:52;12.00;56.30
4245;DHT22;2136;48.502;9.194;2022-12-29T04:42:18;12.00;56.20
4245;DHT22;2136;48.502;9.194;2022-12-29T04:44:45;12.00;56.20
4245;DHT22;2136;48.502;9.194;2022-12-29T04:47:12;12.00;56.20
4245;DHT22;2136;48.502;9.194;2022-12-29T04:49:39;11.90;56.20
4245;DHT22;2136;48.502;9.194;2022-12-29T04:52:05;11.90;56.00
4245;DHT22;2136;48.502;9.194;2022-12-29T04:54:33;11.80;55.90
4245;DHT22;2136;48.502;9.194;2022-12-29T04:57:01;11.80;56.00
4245;DHT22;2136;48.502;9.194;2022-12-29T04:59:28;11.70;56.00
4245;DHT22;2136;48.502;9.194;2022-12-29T05:01:55;11.70;56.10
4245;DHT22;2136;48.502;9.194;2022-12-29T05:04:22;11.60;56.30
4245;DHT22;2136;48.502;9.194;2022-12-29T05:06:49;11.60;56.40
4245;DHT22;2136;48.502;9.194;2022-12-29T05:09:15;11.60;56.60
4245;DHT22;2136;48.502;9.194;2022-12-29T05:11:42;11.60;56.70
4245;DHT22;2136;48.502;9.194;2022-12-29T05:14:10;11.60;56.90
4245;DHT22;2136;48.502;9.194;2022-12-29T05:16:37;11.60;56.90
4245;DHT22;2136;48.502;9.194;2022-12-29T05:19:04;11.70;56.90
4245;DHT22;2136;48.502;9.194;2022-12-29T05:21:31;11.70;56.70
4245;DHT22;2136;48.502;9.194;2022-12-29T05:23:58;11.80;56.60
4245;DHT22;2136;48.502;9.194;2022-12-29T05:26:24;11.90;56.60
4245;DHT22;2136;48.502;9.194;2022-12-29T05:28:51;11.90;56.40
4245;DHT22;2136;48.502;9.194;2022-12-29T05:31:20;11.90;56.00
4245;DHT22;2136;48.502;9.194;2022-12-29T05:33:46;12.00;56.00
4245;DHT22;2136;48.502;9.194;2022-12-29T05:36:13;12.00;55.90
4245;DHT22;2136;48.502;9.194;2022-12-29T05:38:40;12.00;55.70
4245;DHT22;2136;48.502;9.194;2022-12-29T05:41:07;11.90;55.90
4245;DHT22;2136;48.502;9.194;2022-12-29T05:43:33;12.00;55.90
4245;DHT22;2136;48.502;9.194;2022-12-29T05:46:00;12.00;56.00
4245;DHT22;2136;48.502;9.194;2022-12-29T05:48:29;12.10;56.10
4245;DHT22;2136;48.502;9.194;2022-12-29T05:50:55;12.10;56.10
4245;DHT22;2136;48.502;9.194;2022-12-29T05:53:23;12.20;56.20
4245;DHT22;2136;48.502;9.194;2022-12-29T05:55:49;12.20;56.10
4245;DHT22;2136;48.502;9.194;2022-12-29T05:58:17;12.30;56.20
4245;DHT22;2136;48.502;9.194;2022-12-29T06:00:44;12.30;56.00
4245;DHT22;2136;48.502;9.194;2022-12-29T06:03:11;12.20;55.90
4245;DHT22;2136;48.502;9.194;2022-12-29T06:05:39;12.20;56.10
4245;DHT22;2136;48.502;9.194;2022-12-29T06:08:06;12.20;56.20
4245;DHT22;2136;48.502;9.194;2022-12-29T06:10:32;12.30;56.40
4245;DHT22;2136;48.502;9.194;2022-12-29T06:12:59;12.30;56.60
4245;DHT22;2136;48.502;9.194;2022-12-29T06:15:26;12.30;56.90
4245;DHT22;2136;48.502;9.194;2022-12-29T06:17:53;12.30;56.90
4245;DHT22;2136;48.502;9.194;2022-12-29T06:20:19;12.30;57.00
4245;DHT22;2136;48.502;9.194;2022-12-29T06:22:48;12.30;57.20
4245;DHT22;2136;48.502;9.194;2022-12-29T06:25:15;12.30;57.10
4245;DHT22;2136;48.502;9.194;2022-12-29T06:27:42;12.30;57.20
4245;DHT22;2136;48.502;9.194;2022-12-29T06:30:10;12.30;57.30
4245;DHT22;2136;48.502;9.194;2022-12-29T06:32:37;12.40;57.40
4245;DHT22;2136;48.502;9.194;2022-12-29T06:35:05;12.40;57.40
4245;DHT22;2136;48.502;9.194;2022-12-29T06:37:32;12.40;57.50
4245;DHT22;2136;48.502;9.194;2022-12-29T06:40:01;12.50;57.40
4245;DHT22;2136;48.502;9.194;2022-12-29T06:42:28;12.40;57.40
4245;DHT22;2136;48.502;9.194;2022-12-29T06:44:54;12.40;57.50
4245;DHT22;2136;48.502;9.194;2022-12-29T06:47:23;12.50;57.50
4245;DHT22;2136;48.502;9.194;2022-12-29T06:49:50;12.50;57.40
4245;DHT22;2136;48.502;9.194;2022-12-29T06:52:17;12.60;57.40
4245;DHT22;2136;48.502;9.194;2022-12-29T06:54:44;12.60;57.30
4245;DHT22;2136;48.502;9.194;2022-12-29T06:57:12;12.60;57.20
4245;DHT22;2136;48.502;9.194;2022-12-29T06:59:39;12.60;57.20
4245;DHT22;2136;48.502;9.194;2022-12-29T07:02:05;12.70;57.20
4245;DHT22;2136;48.502;9.194;2022-12-29T07:04:32;12.70;57.10
4245;DHT22;2136;48.502;9.194;2022-12-29T07:06:59;12.80;57.00
4245;DHT22;2136;48.502;9.194;2022-12-29T07:09:26;12.90;57.00
4245;DHT22;2136;48.502;9.194;2022-12-29T07:11:52;13.00;57.10
4245;DHT22;2136;48.502;9.194;2022-12-29T07:14:21;13.10;56.70
4245;DHT22;2136;48.502;9.194;2022-12-29T07:16:47;13.10;56.40
4245;DHT22;2136;48.502;9.194;2022-12-29T07:19:14;13.20;57.00
4245;DHT22;2136;48.502;9.194;2022-12-29T07:21:41;13.10;56.30
4245;DHT22;2136;48.502;9.194;2022-12-29T07:24:09;13.10;56.40
4245;DHT22;2136;48.502;9.194;2022-12-29T07:26:35;13.10;56.30
4245;DHT22;2136;48.502;9.194;2022-12-29T07:29:02;13.00;56.30
4245;DHT22;2136;48.502;9.194;2022-12-29T07:31:30;13.10;56.50
4245;DHT22;2136;48.502;9.194;2022-12-29T07:33:57;13.00;56.40
4245;DHT22;2136;48.502;9.194;2022-12-29T07:36:24;13.00;56.50
4245;DHT22;2136;48.502;9.194;2022-12-29T07:38:51;13.00;56.50
4245;DHT22;2136;48.502;9.194;2022-12-29T07:41:17;12.90;56.40
4245;DHT22;2136;48.502;9.194;2022-12-29T07:43:46;13.00;56.60
4245;DHT22;2136;48.502;9.194;2022-12-29T07:46:13;13.00;56.70
4245;DHT22;2136;48.502;9.194;2022-12-29T07:48:41;13.00;56.70
4245;DHT22;2136;48.502;9.194;2022-12-29T07:51:08;13.00;56.70
4245;DHT22;2136;48.502;9.194;2022-12-29T07:53:35;13.00;56.60
4245;DHT22;2136;48.502;9.194;2022-12-29T07:56:02;13.20;56.80
4245;DHT22;2136;48.502;9.194;2022-12-29T07:58:29;13.10;56.90
4245;DHT22;2136;48.502;9.194;2022-12-29T08:00:56;13.10;56.40
4245;DHT22;2136;48.502;9.194;2022-12-29T08:03:23;13.20;56.40
4245;DHT22;2136;48.502;9.194;2022-12-29T08:05:52;13.20;55.90
4245;DHT22;2136;48.502;9.194;2022-12-29T08:08:20;13.30;56.10
4245;DHT22;2136;48.502;9.194;2022-12-29T08:10:47;13.30;55.70
4245;DHT22;2136;48.502;9.194;2022-12-29T08:13:14;13.30;55.50
4245;DHT22;2136;48.502;9.194;2022-12-29T08:15:41;13.40;55.30
4245;DHT22;2136;48.502;9.194;2022-12-29T08:18:07;13.50;55.30
4245;DHT22;2136;48.502;9.194;2022-12-29T08:20:34;13.50;54.80
4245;DHT22;2136;48.502;9.194;2022-12-29T08:23:02;13.60;54.60
4245;DHT22;2136;48.502;9.194;2022-12-29T08:25:29;13.70;54.50
4245;DHT22;2136;48.502;9.194;2022-12-29T08:27:56;13.70;54.30
4245;DHT22;2136;48.502;9.194;2022-12-29T08:30:23;13.80;54.10
4245;DHT22;2136;48.502;9.194;2022-12-29T08:32:50;13.80;53.70
4245;DHT22;2136;48.502;9.194;2022-12-29T08:35:16;13.80;53.50
4245;DHT22;2136;48.502;9.194;2022-12-29T08:37:43;13.80;53.60
4245;DHT22;2136;48.502;9.194;2022-12-29T08:40:11;13.80;53.30
4245;DHT22;2136;48.502;9.194;2022-12-29T08:42:39;13.90;53.40
4245;DHT22;2136;48.502;9.194;2022-12-29T08:45:07;13.90;53.40
4245;DHT22;2136;48.502;9.194;2022-12-29T08:47:35;13.90;53.30
4245;DHT22;2136;48.502;9.194;2022-12-29T08:50:02;14.00;53.40
4245;DHT22;2136;48.502;9.194;2022-12-29T08:52:29;14.00;53.10
4245;DHT22;2136;48.502;9.194;2022-12-29T08:54:55;14.00;53.30
4245;DHT22;2136;48.502;9.194;2022-12-29T08:57:23;14.00;53.10
4245;DHT22;2136;48.502;9.194;2022-12-29T08:59:50;14.10;53.20
4245;DHT22;2136;48.502;9.194;2022-12-29T09:02:17;14.00;53.20
4245;DHT22;2136;48.502;9.194;2022-12-29T09:04:44;14.00;53.40
4245;DHT22;2136;48.502;9.194;2022-12-29T09:07:11;14.10;53.50
4245;DHT22;2136;48.502;9.194;2022-12-29T09:09:37;14.10;53.50
4245;DHT22;2136;48.502;9.194;2022-12-29T09:12:04;14.10;53.60
4245;DHT22;2136;48.502;9.194;2022-12-29T09:14:32;14.00;53.50
4245;DHT22;2136;48.502;9.194;2022-12-29T09:16:59;14.10;53.80
4245;DHT22;2136;48.502;9.194;2022-12-29T09:19:44;14.00;54.00
4245;DHT22;2136;48.502;9.194;2022-12-29T09:22:10;14.10;54.40
4245;DHT22;2136;48.502;9.194;2022-12-29T09:24:37;14.10;54.40
4245;DHT22;2136;48.502;9.194;2022-12-29T09:27:04;14.30;54.70
4245;DHT22;2136;48.502;9.194;2022-12-29T09:29:32;14.30;54.50
4245;DHT22;2136;48.502;9.194;2022-12-29T09:31:59;14.30;54.80
4245;DHT22;2136;48.502;9.194;2022-12-29T09:34:26;14.30;54.90
4245;DHT22;2136;48.502;9.194;2022-12-29T09:36:52;14.10;54.80
4245;DHT22;2136;48.502;9.194;2022-12-29T09:39:19;14.20;55.10
4245;DHT22;2136;48.502;9.194;2022-12-29T09:41:52;14.10;55.10
4245;DHT22;2136;48.502;9.194;2022-12-29T09:44:27;14.10;55.20
4245;DHT22;2136;48.502;9.194;2022-12-29T09:46:58;14.00;55.30
4245;DHT22;2136;48.502;9.194;2022-12-29T09:49:29;14.10;55.50
4245;DHT22;2136;48.502;9.194;2022-12-29T09:52:04;14.10;55.50
4245;DHT22;2136;48.502;9.194;2022-12-29T09:54:38;14.10;55.50
4245;DHT22;2136;48.502;9.194;2022-12-29T09:57:15;14.00;55.40
4245;DHT22;2136;48.502;9.194;2022-12-29T09:59:44;14.10;55.60
4245;DHT22;2136;48.502;9.194;2022-12-29T10:02:23;14.10;55.60
4245;DHT22;2136;48.502;9.194;2022-12-29T10:04:53;14.20;55.80
4245;DHT22;2136;48.502;9.194;2022-12-29T10:07:30;14.20;55.50
4245;DHT22;2136;48.502;9.194;2022-12-29T10:10:03;14.20;55.60
4245;DHT22;2136;48.502;9.194;2022-12-29T10:12:42;14.10;55.40
4245;DHT22;2136;48.502;9.194;2022-12-29T10:15:17;14.10;55.50
4245;DHT22;2136;48.502;9.194;2022-12-29T10:17:53;14.30;55.70
4245;DHT22;2136;48.502;9.194;2022-12-29T10:20:31;14.10;55.60
4245;DHT22;2136;48.502;9.194;2022-12-29T10:23:17;14.20;55.70
4245;DHT22;2136;48.502;9.194;2022-12-29T10:25:49;14.20;55.80
4245;DHT22;2136;48.502;9.194;2022-12-29T10:28:20;14.10;55.90
4245;DHT22;2136;48.502;9.194;2022-12-29T10:30:49;14.10;56.10
4245;DHT22;2136;48.502;9.194;2022-12-29T10:33:21;14.00;56.20
4245;DHT22;2136;48.502;9.194;2022-12-29T10:35:50;14.10;56.40
4245;DHT22;2136;48.502;9.194;2022-12-29T10:38:24;14.10;56.50
4245;DHT22;2136;48.502;9.194;2022-12-29T10:40:57;14.10;56.70
4245;DHT22;2136;48.502;9.194;2022-12-29T10:43:27;14.10;56.70
4245;DHT22;2136;48.502;9.194;2022-12-29T10:45:57;14.00;56.80
4245;DHT22;2136;48.502;9.194;2022-12-29T10:48:28;14.00;57.20
4245;DHT22;2136;48.502;9.194;2022-12-29T10:50:58;14.00;57.30
4245;DHT22;2136;48.502;9.194;2022-12-29T10:53:33;14.10;57.60
4245;DHT22;2136;48.502;9.194;2022-12-29T10:56:14;14.00;57.40
4245;DHT22;2136;48.502;9.194;2022-12-29T10:58:45;14.00;57.60
4245;DHT22;2136;48.502;9.194;2022-12-29T11:01:14;14.00;58.50
4245;DHT22;2136;48.502;9.194;2022-12-29T11:03:57;14.00;58.10
4245;DHT22;2136;48.502;9.194;2022-12-29T11:06:26;14.00;58.00
4245;DHT22;2136;48.502;9.194;2022-12-29T11:08:57;14.00;58.10
4245;DHT22;2136;48.502;9.194;2022-12-29T11:11:26;14.00;58.30
4245;DHT22;2136;48.502;9.194;2022-12-29T11:13:58;13.90;58.30
4245;DHT22;2136;48.502;9.194;2022-12-29T11:16:29;14.00;58.50
4245;DHT22;2136;48.502;9.194;2022-12-29T11:18:58;14.10;58.70
4245;DHT22;2136;48.502;9.194;2022-12-29T11:21:31;14.20;58.60
4245;DHT22;2136;48.502;9.194;2022-12-29T11:24:00;14.20;60.50
4245;DHT22;2136;48.502;9.194;2022-12-29T11:26:28;14.20;62.90
4245;DHT22;2136;48.502;9.194;2022-12-29T11:29:20;14.30;64.00
4245;DHT22;2136;48.502;9.194;2022-12-29T11:31:48;14.60;64.70
4245;DHT22;2136;48.502;9.194;2022-12-29T11:34:22;15.00;63.90
4245;DHT22;2136;48.502;9.194;2022-12-29T11:36:50;15.30;63.00
4245;DHT22;2136;48.502;9.194;2022-12-29T11:39:31;16.00;63.40
4245;DHT22;2136;48.502;9.194;2022-12-29T11:42:00;16.90;61.50
4245;DHT22;2136;48.502;9.194;2022-12-29T11:44:31;17.50;59.30
4245;DHT22;2136;48.502;9.194;2022-12-29T11:47:01;17.50;57.40
4245;DHT22;2136;48.502;9.194;2022-12-29T11:49:29;17.40;56.60
4245;DHT22;2136;48.502;9.194;2022-12-29T11:51:56;17.10;56.40
4245;DHT22;2136;48.502;9.194;2022-12-29T11:54:25;16.70;56.50
4245;DHT22;2136;48.502;9.194;2022-12-29T11:56:54;16.50;56.90
4245;DHT22;2136;48.502;9.194;2022-12-29T11:59:25;16.30;57.40
4245;DHT22;2136;48.502;9.194;2022-12-29T12:02:10;16.00;57.70
4245;DHT22;2136;48.502;9.194;2022-12-29T12:04:41;15.80;58.00
4245;DHT22;2136;48.502;9.194;2022-12-29T12:07:13;15.50;58.20
4245;DHT22;2136;48.502;9.194;2022-12-29T12:09:45;15.30;58.90
4245;DHT22;2136;48.502;9.194;2022-12-29T12:12:21;15.00;59.70
4245;DHT22;2136;48.502;9.194;2022-12-29T12:14:54;14.60;60.60
4245;DHT22;2136;48.502;9.194;2022-12-29T12:17:24;14.50;61.90
4245;DHT22;2136;48.502;9.194;2022-12-29T12:20:06;14.30;62.90
4245;DHT22;2136;48.502;9.194;2022-12-29T12:22:43;14.10;63.80
4245;DHT22;2136;48.502;9.194;2022-12-29T12:25:13;14.00;65.00
4245;DHT22;2136;48.502;9.194;2022-12-29T12:27:48;13.80;65.90
4245;DHT22;2136;48.502;9.194;2022-12-29T12:30:17;13.80;66.60
4245;DHT22;2136;48.502;9.194;2022-12-29T12:32:48;13.80;67.90
4245;DHT22;2136;48.502;9.194;2022-12-29T12:35:23;13.80;69.00
4245;DHT22;2136;48.502;9.194;2022-12-29T12:38:03;13.70;69.70
4245;DHT22;2136;48.502;9.194;2022-12-29T12:40:43;13.70;70.30
4245;DHT22;2136;48.502;9.194;2022-12-29T12:43:31;13.70;71.20
4245;DHT22;2136;48.502;9.194;2022-12-29T12:46:12;13.60;71.90
4245;DHT22;2136;48.502;9.194;2022-12-29T12:48:59;13.60;72.20
4245;DHT22;2136;48.502;9.194;2022-12-29T12:51:35;13.60;72.20
4245;DHT22;2136;48.502;9.194;2022-12-29T12:54:12;13.60;72.80
4245;DHT22;2136;48.502;9.194;2022-12-29T12:56:50;13.60;73.10
4245;DHT22;2136;48.502;9.194;2022-12-29T12:59:35;13.50;73.30
4245;DHT22;2136;48.502;9.194;2022-12-29T13:02:19;13.60;73.70
4245;DHT22;2136;48.502;9.194;2022-12-29T13:05:29;13.70;73.00
4245;DHT22;2136;48.502;9.194;2022-12-29T13:08:27;13.60;72.20
4245;DHT22;2136;48.502;9.194;2022-12-29T13:11:02;13.60;71.80
4245;DHT22;2136;48.502;9.194;2022-12-29T13:13:54;13.40;71.30
4245;DHT22;2136;48.502;9.194;2022-12-29T13:16:31;13.40;71.60
4245;DHT22;2136;48.502;9.194;2022-12-29T13:19:04;13.30;71.70
4245;DHT22;2136;48.502;9.194;2022-12-29T13:21:42;13.40;72.20
4245;DHT22;2136;48.502;9.194;2022-12-29T13:24:15;13.40;72.20
4245;DHT22;2136;48.502;9.194;2022-12-29T13:26:49;13.40;73.00
4245;DHT22;2136;48.502;9.194;2022-12-29T13:29:20;13.50;72.00
4245;DHT22;2136;48.502;9.194;2022-12-29T13:31:52;13.40;72.00
4245;DHT22;2136;48.502;9.194;2022-12-29T13:34:31;13.40;72.10
4245;DHT22;2136;48.502;9.194;2022-12-29T13:37:01;13.30;72.20
4245;DHT22;2136;48.502;9.194;2022-12-29T13:39:34;13.40;72.50
4245;DHT22;2136;48.502;9.194;2022-12-29T13:42:03;13.40;72.60
4245;DHT22;2136;48.502;9.194;2022-12-29T13:44:34;13.40;72.70
4245;DHT22;2136;48.502;9.194;2022-12-29T13:47:04;13.40;72.80
4245;DHT22;2136;48.502;9.194;2022-12-29T13:49:34;13.50;72.70
4245;DHT22;2136;48.502;9.194;2022-12-29T13:52:11;13.50;72.60
4245;DHT22;2136;48.502;9.194;2022-12-29T13:54:51;13.50;71.70
4245;DHT22;2136;48.502;9.194;2022-12-29T13:57:31;13.50;71.40
4245;DHT22;2136;48.502;9.194;2022-12-29T14:00:07;13.60;71.40
4245;DHT22;2136;48.502;9.194;2022-12-29T14:02:46;13.50;71.10
4245;DHT22;2136;48.502;9.194;2022-12-29T14:05:30;13.50;71.10
4245;DHT22;2136;48.502;9.194;2022-12-29T14:07:59;13.60;71.20
4245;DHT22;2136;48.502;9.194;2022-12-29T14:10:32;13.70;71.00
4245;DHT22;2136;48.502;9.194;2022-12-29T14:13:04;13.60;70.60
4245;DHT22;2136;48.502;9.194;2022-12-29T14:15:33;13.70;70.50
4245;DHT22;2136;48.502;9.194;2022-12-29T14:18:13;13.60;69.90
4245;DHT22;2136;48.502;9.194;2022-12-29T14:20:52;13.70;69.70
4245;DHT22;2136;48.502;9.194;2022-12-29T14:23:36;13.60;69.00
4245;DHT22;2136;48.502;9.194;2022-12-29T14:26:13;13.60;69.10
4245;DHT22;2136;48.502;9.194;2022-12-29T14:28:41;13.60;69.00
4245;DHT22;2136;48.502;9.194;2022-12-29T14:31:33;13.60;68.60
4245;DHT22;2136;48.502;9.194;2022-12-29T14:34:30;13.60;68.10
4245;DHT22;2136;48.502;9.194;2022-12-29T14:37:03;13.50;68.20
4245;DHT22;2136;48.502;9.194;2022-12-29T14:39:37;13.40;68.10
4245;DHT22;2136;48.502;9.194;2022-12-29T14:42:11;13.30;67.90
4245;DHT22;2136;48.502;9.194;2022-12-29T14:44:49;13.30;67.70
4245;DHT22;2136;48.502;9.194;2022-12-29T14:47:31;13.30;67.60
4245;DHT22;2136;48.502;9.194;2022-12-29T14:50:04;13.20;67.40
4245;DHT22;2136;48.502;9.194;2022-12-29T14:52:45;13.20;67.30
4245;DHT22;2136;48.502;9.194;2022-12-29T14:55:37;13.10;67.20
4245;DHT22;2136;48.502;9.194;2022-12-29T14:58:12;13.20;67.90
4245;DHT22;2136;48.502;9.194;2022-12-29T15:00:41;13.10;66.90
4245;DHT22;2136;48.502;9.194;2022-12-29T15:03:18;13.00;66.80
4245;DHT22;2136;48.502;9.194;2022-12-29T15:05:49;13.00;66.90
4245;DHT22;2136;48.502;9.194;2022-12-29T15:08:19;13.00;67.00
4245;DHT22;2136;48.502;9.194;2022-12-29T15:10:51;12.90;67.10
4245;DHT22;2136;48.502;9.194;2022-12-29T15:13:31;12.80;67.10
4245;DHT22;2136;48.502;9.194;2022-12-29T15:15:58;12.80;67.20
4245;DHT22;2136;48.502;9.194;2022-12-29T15:18:26;12.80;67.20
4245;DHT22;2136;48.502;9.194;2022-12-29T15:20:55;12.80;67.40
4245;DHT22;2136;48.502;9.194;2022-12-29T15:23:24;12.80;67.40
4245;DHT22;2136;48.502;9.194;2022-12-29T15:25:54;12.70;67.30
4245;DHT22;2136;48.502;9.194;2022-12-29T15:28:23;12.70;67.40
4245;DHT22;2136;48.502;9.194;2022-12-29T15:30:53;12.70;67.50
4245;DHT22;2136;48.502;9.194;2022-12-29T15:33:22;12.70;67.60
4245;DHT22;2136;48.502;9.194;2022-12-29T15:35:50;12.70;67.80
4245;DHT22;2136;48.502;9.194;2022-12-29T15:38:22;12.70;68.00
4245;DHT22;2136;48.502;9.194;2022-12-29T15:40:52;12.60;68.10
4245;DHT22;2136;48.502;9.194;2022-12-29T15:43:35;12.60;68.20
4245;DHT22;2136;48.502;9.194;2022-12-29T15:46:05;12.60;68.30
4245;DHT22;2136;48.502;9.194;2022-12-29T15:48:32;12.60;68.30
4245;DHT22;2136;48.502;9.194;2022-12-29T15:51:00;12.60;68.50
4245;DHT22;2136;48.502;9.194;2022-12-29T15:53:29;12.50;68.50
4245;DHT22;2136;48.502;9.194;2022-12-29T15:55:58;12.50;68.60
4245;DHT22;2136;48.502;9.194;2022-12-29T15:58:29;12.40;68.30
4245;DHT22;2136;48.502;9.194;2022-12-29T16:00:57;12.50;68.40
4245;DHT22;2136;48.502;9.194;2022-12-29T16:03:25;12.40;68.00
4245;DHT22;2136;48.502;9.194;2022-12-29T16:05:54;12.40;67.70
4245;DHT22;2136;48.502;9.194;2022-12-29T16:08:27;12.50;67.50
4245;DHT22;2136;48.502;9.194;2022-12-29T16:10:58;12.50;67.10
4245;DHT22;2136;48.502;9.194;2022-12-29T16:13:29;12.50;67.00
4245;DHT22;2136;48.502;9.194;2022-12-29T16:16:00;12.50;66.80
4245;DHT22;2136;48.502;9.194;2022-12-29T16:18:30;12.50;66.80
4245;DHT22;2136;48.502;9.194;2022-12-29T16:20:59;12.50;66.80
4245;DHT22;2136;48.502;9.194;2022-12-29T16:23:28;12.50;66.90
4245;DHT22;2136;48.502;9.194;2022-12-29T16:25:56;12.50;67.00
4245;DHT22;2136;48.502;9.194;2022-12-29T16:28:28;12.50;67.20
4245;DHT22;2136;48.502;9.194;2022-12-29T16:30:59;12.50;67.10